Wickham, United Kingdom
Current Conditions -  °F | °C
As of 3:28 PM on Friday 24 Oct 2014 (Local Time) from EGUB Reporting Station
Scattered Clouds Scattered Clouds  
Wind Chill: 61°   Ceiling: Unl
Heat Index: 61°   Visibility: 6mi
Dew Point: 57°   Wind: 6mph
Humidity: 88%   Direction: 170°S
Pressure: 29.88"   Gusts: NA
Location:  51.44°N, 1.43°W
Report Text: EGUB 241428Z 17005KT 9999 SCT012 SCT025 16/14 Q1012 GRN NOSIG
Loading
Personal Weather Stations






























Interactive Weather Map
Tropical Storm Tracking
New forecast layout! Learn more

10-Day Weather Forecast

Advertisements
Track Severe Weather on mobile